Time;durP1;ratioP1;P1;durP2;ratioP2;P2;SDS_P1;SDS_P2;PMS_P1;PMS_P2;Temp;Humidity;BMP_temperature;BMP_pressure;BME280_temperature;BME280_humidity;BME280_pressure;Samples;Min_cycle;Max_cycle;Signal;HPM_P1;HPM_P2
2024/01/15 00:34:41;;;;;;;0.10;0.10;;;1.70;99.90;;;;;;5032600;28;20033;-86
2024/01/15 00:37:06;;;;;;;0.00;0.00;;;1.70;99.90;;;;;;5011748;28;20037;-85
2024/01/15 00:39:32;;;;;;;0.00;0.00;;;;;;;;;;5012224;28;20041;-85
2024/01/15 00:41:58;;;;;;;0.00;0.00;;;;;;;;;;5009586;28;20086;-84
2024/01/15 00:44:24;;;;;;;0.05;0.05;;;;;;;;;;5008295;28;20048;-85
2024/01/15 00:46:50;;;;;;;0.10;0.10;;;;;;;;;;5010661;28;20030;-85
2024/01/15 00:49:16;;;;;;;0.10;0.10;;;;;;;;;;5012601;28;20388;-86
2024/01/15 00:51:42;;;;;;;0.10;0.10;;;;;;;;;;5033146;28;20026;-86
2024/01/15 00:54:08;;;;;;;0.10;0.10;;;;;;;;;;5015729;28;20032;-86
2024/01/15 00:56:34;;;;;;;0.10;0.10;;;;;;;;;;5015828;28;20028;-87
2024/01/15 00:59:00;;;;;;;0.10;0.10;;;1.80;99.90;;;;;;5006251;28;20464;-88
2024/01/15 01:01:26;;;;;;;0.00;0.00;;;;;;;;;;5013767;28;20107;-86
2024/01/15 01:03:52;;;;;;;0.10;0.10;;;;;;;;;;5015168;28;20476;-86
2024/01/15 01:06:18;;;;;;;0.10;0.10;;;;;;;;;;5015249;28;20388;-86
2024/01/15 01:08:44;;;;;;;0.10;0.10;;;;;;;;;;5015098;28;20116;-87
2024/01/15 01:11:13;;;;;;;0.10;0.10;;;2.00;99.90;;;;;;5017580;28;20100;-86
2024/01/15 01:13:39;;;;;;;0.10;0.10;;;;;;;;;;5025279;28;20111;-85
2024/01/15 01:16:05;;;;;;;0.10;0.10;;;;;;;;;;5014353;28;20030;-85
2024/01/15 01:18:31;;;;;;;0.00;0.00;;;;;;;;;;5008420;28;20030;-86
2024/01/15 01:20:57;;;;;;;0.00;0.00;;;;;;;;;;5033645;28;20049;-85
2024/01/15 01:23:23;;;;;;;0.10;0.10;;;;;;;;;;5032849;28;20021;-87
2024/01/15 01:25:49;;;;;;;0.10;0.10;;;;;;;;;;5015325;28;20392;-86
2024/01/15 01:28:15;;;;;;;0.10;0.10;;;;;;;;;;5013843;28;20026;-86
2024/01/15 01:30:41;;;;;;;0.00;0.00;;;;;;;;;;5013869;28;20037;-85
2024/01/15 01:33:07;;;;;;;0.10;0.10;;;;;;;;;;5012424;28;20037;-87
2024/01/15 01:35:33;;;;;;;0.10;0.10;;;;;;;;;;5031928;28;20038;-86
2024/01/15 01:37:59;;;;;;;0.10;0.10;;;;;;;;;;5019537;28;20078;-87
2024/01/15 01:40:25;;;;;;;0.10;0.10;;;;;;;;;;5013973;28;20031;-86
2024/01/15 01:42:50;;;;;;;0.10;0.10;;;;;;;;;;5012698;28;20029;-86
2024/01/15 01:45:16;;;;;;;0.10;0.10;;;;;;;;;;5014679;28;20034;-86
2024/01/15 01:47:42;;;;;;;0.10;0.10;;;;;;;;;;5034204;28;20377;-85
2024/01/15 01:50:08;;;;;;;0.00;0.00;;;;;;;;;;5023411;28;20117;-86
2024/01/15 01:52:35;;;;;;;0.10;0.10;;;;;;;;;;5013288;28;20028;-85
2024/01/15 01:55:02;;;;;;;0.00;0.00;;;1.80;99.90;;;;;;5015409;28;20026;-86
2024/01/15 01:57:28;;;;;;;0.10;0.10;;;;;;;;;;5033212;28;20017;-85
2024/01/15 01:59:54;;;;;;;0.10;0.10;;;;;;;;;;5000564;28;20515;-86
2024/01/15 02:02:21;;;;;;;0.10;0.10;;;1.90;99.90;;;;;;5011469;28;20468;-86
2024/01/15 02:04:47;;;;;;;0.10;0.10;;;1.90;99.90;;;;;;5014543;28;20052;-86
2024/01/15 02:07:14;;;;;;;0.00;0.00;;;;;;;;;;5023290;28;20495;-87
2024/01/15 02:09:40;;;;;;;0.00;0.00;;;;;;;;;;5022053;28;20025;-86
2024/01/15 02:12:06;;;;;;;0.00;0.00;;;2.00;99.90;;;;;;5015079;28;20032;-86
2024/01/15 02:14:32;;;;;;;0.10;0.10;;;;;;;;;;5007615;28;20496;-87
2024/01/15 02:16:58;;;;;;;0.10;0.10;;;;;;;;;;5020197;28;20033;-86
2024/01/15 02:19:24;;;;;;;0.10;0.10;;;;;;;;;;5014809;28;20021;-87
2024/01/15 02:21:50;;;;;;;0.00;0.00;;;;;;;;;;5013663;28;20033;-86
2024/01/15 02:24:16;;;;;;;0.10;0.10;;;;;;;;;;5033895;28;20026;-86
2024/01/15 02:26:42;;;;;;;0.05;0.05;;;;;;;;;;5008455;28;20074;-86
2024/01/15 02:29:11;;;;;;;0.10;0.10;;;;;;;;;;5034037;28;20040;-86
2024/01/15 02:31:37;;;;;;;0.00;0.00;;;;;;;;;;5015525;28;20036;-86
2024/01/15 02:34:02;;;;;;;0.05;0.05;;;1.90;99.90;;;;;;5015341;28;20543;-86
2024/01/15 02:36:28;;;;;;;0.10;0.10;;;;;;;;;;5015080;28;20102;-86
2024/01/15 02:38:54;;;;;;;0.10;0.10;;;;;;;;;;5015518;28;20484;-86
2024/01/15 02:41:20;;;;;;;0.10;0.10;;;;;;;;;;5015614;28;20017;-86
2024/01/15 02:43:46;;;;;;;0.08;0.08;;;;;;;;;;5011127;28;20464;-86
2024/01/15 02:46:12;;;;;;;0.10;0.10;;;;;;;;;;5018538;28;20025;-87
2024/01/15 02:48:38;;;;;;;0.10;0.10;;;;;;;;;;5014993;28;20033;-86
2024/01/15 02:51:04;;;;;;;0.10;0.10;;;;;;;;;;5021084;28;20018;-88
2024/01/15 02:53:29;;;;;;;0.10;0.10;;;2.00;99.90;;;;;;5014860;28;20465;-87
2024/01/15 02:55:55;;;;;;;0.10;0.10;;;;;;;;;;5015063;28;20125;-86
2024/01/15 02:58:21;;;;;;;0.10;0.10;;;;;;;;;;5032915;28;20025;-86
2024/01/15 03:00:47;;;;;;;0.10;0.10;;;;;;;;;;5014862;28;20060;-85
2024/01/15 03:03:13;;;;;;;0.10;0.10;;;;;;;;;;5015525;28;20021;-86
2024/01/15 03:05:39;;;;;;;0.05;0.05;;;;;;;;;;5032857;28;20056;-85
2024/01/15 03:08:05;;;;;;;0.10;0.10;;;;;;;;;;5023812;28;20029;-86
2024/01/15 03:10:31;;;;;;;0.00;0.00;;;;;;;;;;5020696;28;20053;-86
2024/01/15 03:12:57;;;;;;;0.10;0.10;;;;;;;;;;5014994;28;20017;-87
2024/01/15 03:15:23;;;;;;;0.10;0.10;;;;;;;;;;5014879;28;20056;-85
2024/01/15 03:17:49;;;;;;;0.05;0.05;;;;;;;;;;5014732;28;20032;-86
2024/01/15 03:20:15;;;;;;;0.05;0.05;;;;;;;;;;5026684;28;20431;-86
2024/01/15 03:22:41;;;;;;;0.10;0.10;;;;;;;;;;5030333;28;20056;-86
2024/01/15 03:25:07;;;;;;;0.10;0.10;;;;;;;;;;5023928;28;20471;-86
2024/01/15 03:27:33;;;;;;;0.10;0.10;;;;;;;;;;5012786;28;20099;-86
2024/01/15 03:29:59;;;;;;;0.10;0.10;;;;;;;;;;5015188;28;20068;-87
2024/01/15 03:32:25;;;;;;;0.10;0.10;;;;;;;;;;5015377;28;20018;-86
2024/01/15 03:34:52;;;;;;;0.10;0.10;;;2.20;99.90;;;;;;5025582;28;20033;-87
2024/01/15 03:37:18;;;;;;;0.00;0.00;;;;;;;;;;5022026;28;20116;-87
2024/01/15 03:39:44;;;;;;;0.10;0.10;;;;;;;;;;5022084;28;20068;-87
2024/01/15 03:42:10;;;;;;;0.10;0.10;;;;;;;;;;5035536;28;20056;-86
2024/01/15 03:44:35;;;;;;;0.10;0.10;;;;;;;;;;5017695;28;20120;-85
2024/01/15 03:47:01;;;;;;;0.10;0.10;;;;;;;;;;5022137;28;20376;-86
2024/01/15 03:49:27;;;;;;;0.10;0.10;;;;;;;;;;5020306;28;20038;-85
2024/01/15 03:51:53;;;;;;;0.10;0.10;;;;;;;;;;5034984;28;20022;-85
2024/01/15 03:54:19;;;;;;;0.10;0.10;;;;;;;;;;5017601;28;20025;-86
2024/01/15 03:56:45;;;;;;;0.10;0.10;;;;;;;;;;5025520;28;20022;-85
2024/01/15 03:59:11;;;;;;;0.10;0.10;;;;;;;;;;5035076;28;20029;-87
2024/01/15 04:01:37;;;;;;;0.10;0.10;;;;;;;;;;5023257;28;20381;-87
2024/01/15 04:04:03;;;;;;;0.10;0.10;;;;;;;;;;5017159;28;20034;-86
2024/01/15 04:06:29;;;;;;;0.10;0.10;;;;;;;;;;5025077;28;20034;-87
2024/01/15 04:08:54;;;;;;;0.10;0.10;;;;;;;;;;5035163;28;20032;-87
2024/01/15 04:11:22;;;;;;;0.10;0.10;;;;;;;;;;5023443;28;20021;-86
2024/01/15 04:13:48;;;;;;;0.10;0.10;;;;;;;;;;5034875;28;20153;-86
2024/01/15 04:16:14;;;;;;;0.05;0.05;;;;;;;;;;5017108;28;20045;-86
2024/01/15 04:18:39;;;;;;;0.00;0.00;;;;;;;;;;5023073;28;20421;-87
2024/01/15 04:21:06;;;;;;;0.10;0.10;;;2.20;99.90;;;;;;5036472;28;20025;-86
2024/01/15 04:23:32;;;;;;;0.10;0.10;;;2.10;99.90;;;;;;5018752;28;20025;-88
2024/01/15 04:25:58;;;;;;;0.10;0.10;;;;;;;;;;5034739;28;20040;-86
2024/01/15 04:28:24;;;;;;;0.10;0.10;;;;;;;;;;5018169;28;20018;-86
2024/01/15 04:30:50;;;;;;;0.10;0.10;;;;;;;;;;5036044;28;20025;-88
2024/01/15 04:33:16;;;;;;;0.10;0.10;;;;;;;;;;5009322;28;20038;-87
2024/01/15 04:35:42;;;;;;;0.10;0.10;;;;;;;;;;5034817;28;20029;-87
2024/01/15 04:38:07;;;;;;;0.00;0.00;;;2.10;99.90;;;;;;5018149;28;20021;-86
2024/01/15 04:40:33;;;;;;;0.00;0.00;;;;;;;;;;5019300;28;20079;-84
2024/01/15 04:42:59;;;;;;;0.10;0.10;;;2.10;99.90;;;;;;5023886;28;20022;-86
2024/01/15 04:45:28;;;;;;;0.10;0.10;;;;;;;;;;5020836;28;20108;-85
2024/01/15 04:47:55;;;;;;;0.10;0.10;;;;;;;;;;5018925;28;20116;-85
2024/01/15 04:50:21;;;;;;;0.10;0.10;;;;;;;;;;5019366;28;20041;-85
2024/01/15 04:52:47;;;;;;;0.00;0.00;;;;;;;;;;5017299;28;20026;-86
2024/01/15 04:55:13;;;;;;;0.00;0.00;;;2.00;99.90;;;;;;5024705;28;20472;-86
2024/01/15 04:57:38;;;;;;;0.10;0.10;;;;;;;;;;5019316;28;20025;-87
2024/01/15 05:00:05;;;;;;;0.10;0.10;;;2.00;99.90;;;;;;5015884;28;20032;-87
2024/01/15 05:02:30;;;;;;;0.00;0.00;;;;;;;;;;5018355;28;20026;-85
2024/01/15 05:04:56;;;;;;;0.00;0.00;;;2.10;99.90;;;;;;5035096;28;20047;-86
2024/01/15 05:07:22;;;;;;;0.10;0.10;;;;;;;;;;5035082;28;20017;-86
2024/01/15 05:09:48;;;;;;;0.10;0.10;;;;;;;;;;5016335;28;20022;-86
2024/01/15 05:12:14;;;;;;;0.00;0.00;;;;;;;;;;5026365;28;20029;-87
2024/01/15 05:14:40;;;;;;;0.00;0.00;;;;;;;;;;5016375;28;20083;-86
2024/01/15 05:17:06;;;;;;;0.05;0.05;;;;;;;;;;5035028;28;20447;-87
2024/01/15 05:19:32;;;;;;;0.00;0.00;;;;;;;;;;5034523;28;20030;-86
2024/01/15 05:21:57;;;;;;;0.10;0.10;;;;;;;;;;5023695;28;20022;-88
2024/01/15 05:24:23;;;;;;;0.08;0.08;;;2.30;99.90;;;;;;5016606;28;20056;-87
2024/01/15 05:26:49;;;;;;;0.10;0.10;;;;;;;;;;5016528;28;20029;-87
2024/01/15 05:29:15;;;;;;;0.10;0.10;;;;;;;;;;5016985;28;20041;-86
2024/01/15 05:31:41;;;;;;;0.00;0.00;;;;;;;;;;5016735;28;20394;-87
2024/01/15 05:34:07;;;;;;;0.08;0.08;;;;;;;;;;5033830;28;20037;-87
2024/01/15 05:36:33;;;;;;;0.00;0.00;;;;;;;;;;5013571;28;20037;-87
2024/01/15 05:38:59;;;;;;;0.10;0.10;;;;;;;;;;5016242;28;20048;-86
2024/01/15 05:41:25;;;;;;;0.10;0.10;;;;;;;;;;5033834;28;20100;-87
2024/01/15 05:43:50;;;;;;;0.10;0.10;;;;;;;;;;5016541;28;20388;-88
2024/01/15 05:46:17;;;;;;;0.10;0.10;;;;;;;;;;5034782;28;20060;-87
2024/01/15 05:48:43;;;;;;;0.00;0.00;;;;;;;;;;5016283;28;20496;-87
2024/01/15 05:51:08;;;;;;;0.00;0.00;;;;;;;;;;5013704;28;20025;-86
2024/01/15 05:53:35;;;;;;;0.00;0.00;;;;;;;;;;5016524;28;20045;-87
2024/01/15 05:56:01;;;;;;;0.00;0.00;;;;;;;;;;5016354;28;20022;-86
2024/01/15 05:58:27;;;;;;;0.03;0.03;;;;;;;;;;5016054;28;20100;-87
2024/01/15 06:00:53;;;;;;;0.10;0.10;;;;;;;;;;5016385;28;20030;-87
2024/01/15 06:03:19;;;;;;;0.10;0.10;;;;;;;;;;5019734;28;20029;-87
2024/01/15 06:05:45;;;;;;;0.10;0.10;;;;;;;;;;5033771;28;20059;-88
2024/01/15 06:08:11;;;;;;;0.10;0.10;;;;;;;;;;5016201;28;20055;-87
2024/01/15 06:10:37;;;;;;;0.10;0.10;;;;;;;;;;5016073;28;20141;-87
2024/01/15 06:13:03;;;;;;;0.10;0.10;;;;;;;;;;5033637;28;20098;-86
2024/01/15 06:15:28;;;;;;;0.08;0.08;;;;;;;;;;5016167;28;20025;-87
2024/01/15 06:17:54;;;;;;;0.10;0.10;;;;;;;;;;5015958;28;20465;-87
2024/01/15 06:20:20;;;;;;;0.00;0.00;;;;;;;;;;5016258;28;20256;-88
2024/01/15 06:22:46;;;;;;;0.05;0.05;;;;;;;;;;5015527;28;20029;-88
2024/01/15 06:25:12;;;;;;;0.00;0.00;;;;;;;;;;5015680;28;20473;-87
2024/01/15 06:27:38;;;;;;;0.00;0.00;;;;;;;;;;5015654;28;20033;-87
2024/01/15 06:30:04;;;;;;;0.03;0.03;;;2.20;99.90;;;;;;5015340;28;20025;-86
2024/01/15 06:32:30;;;;;;;0.10;0.10;;;;;;;;;;5032287;28;20022;-86
2024/01/15 06:34:56;;;;;;;0.08;0.08;;;;;;;;;;5015450;28;20040;-86
2024/01/15 06:37:22;;;;;;;0.10;0.10;;;;;;;;;;5020430;28;20108;-88
2024/01/15 06:39:48;;;;;;;0.00;0.00;;;;;;;;;;5034193;28;20400;-86
2024/01/15 06:42:14;;;;;;;0.00;0.00;;;;;;;;;;5031315;28;20112;-86
2024/01/15 06:44:40;;;;;;;0.00;0.00;;;;;;;;;;5025035;28;20026;-86
2024/01/15 06:49:32;;;;;;;0.08;0.08;;;;;;;;;;5048646;22;20136;-92
2024/01/15 06:51:58;;;;;;;0.10;0.10;;;;;;;;;;5016109;28;20103;-92
2024/01/15 06:54:26;;;;;;;0.10;0.10;;;;;;;;;;5015968;28;20029;-93
2024/01/15 06:56:52;;;;;;;0.00;0.00;;;;;;;;;;5019806;28;20168;-92
2024/01/15 06:59:18;;;;;;;0.10;0.10;;;;;;;;;;5017247;28;20041;-91
2024/01/15 07:01:44;;;;;;;0.10;0.10;;;;;;;;;;5017873;28;20124;-91
2024/01/15 07:04:10;;;;;;;0.10;0.10;;;;;;;;;;5021469;28;20029;-92
2024/01/15 07:06:35;;;;;;;0.10;0.10;;;;;;;;;;5018218;28;20036;-92
2024/01/15 07:09:02;;;;;;;0.10;0.10;;;;;;;;;;5024001;28;20034;-91
2024/01/15 07:11:28;;;;;;;0.10;0.10;;;;;;;;;;5038242;28;20029;-92
2024/01/15 07:13:53;;;;;;;0.10;0.10;;;;;;;;;;5027698;28;20044;-92
2024/01/15 07:16:19;;;;;;;0.10;0.10;;;;;;;;;;5025462;28;20076;-92
2024/01/15 07:18:45;;;;;;;0.10;0.10;;;;;;;;;;5025205;28;20489;-92
2024/01/15 07:21:11;;;;;;;0.10;0.10;;;;;;;;;;5017530;28;20025;-94
2024/01/15 07:23:37;;;;;;;0.10;0.10;;;;;;;;;;5022193;28;20053;-92
2024/01/15 07:26:04;;;;;;;0.10;0.10;;;;;;;;;;5026096;28;20052;-93
2024/01/15 07:28:30;;;;;;;0.10;0.10;;;;;;;;;;5027448;28;20079;-91
2024/01/15 07:30:56;;;;;;;0.10;0.10;;;;;;;;;;5022958;28;20028;-92
2024/01/15 07:33:21;;;;;;;0.10;0.10;;;;;;;;;;5030004;28;20026;-92
2024/01/15 07:35:47;;;;;;;0.10;0.10;;;;;;;;;;5032286;28;20061;-93
2024/01/15 07:38:13;;;;;;;0.10;0.10;;;;;;;;;;5025814;28;20032;-93
2024/01/15 07:40:39;;;;;;;0.10;0.10;;;;;;;;;;5024107;28;20087;-93
2024/01/15 07:43:05;;;;;;;0.10;0.10;;;;;;;;;;5024932;28;20045;-93
2024/01/15 07:45:31;;;;;;;0.10;0.10;;;;;;;;;;5024955;28;20032;-93
2024/01/15 07:47:57;;;;;;;0.10;0.10;;;;;;;;;;5017574;28;20051;-92
2024/01/15 07:50:23;;;;;;;0.10;0.10;;;;;;;;;;5020905;28;20096;-93
2024/01/15 07:52:49;;;;;;;0.10;0.10;;;;;;;;;;5041549;28;20033;-92
2024/01/15 07:55:15;;;;;;;0.10;0.10;;;;;;;;;;5022868;28;20080;-94
2024/01/15 07:57:41;;;;;;;0.03;0.03;;;;;;;;;;5021869;28;20373;-93
2024/01/15 08:00:08;;;;;;;0.10;0.10;;;;;;;;;;5017377;28;20021;-93
2024/01/15 08:02:34;;;;;;;0.10;0.10;;;;;;;;;;5021660;28;20033;-93
2024/01/15 08:05:00;;;;;;;0.00;0.00;;;;;;;;;;5024505;28;20028;-93
2024/01/15 08:07:26;;;;;;;0.10;0.10;;;;;;;;;;5024105;28;20025;-93
2024/01/15 08:09:53;;;;;;;0.10;0.10;;;;;;;;;;5026638;28;20029;-93
2024/01/15 08:12:19;;;;;;;0.10;0.10;;;;;;;;;;5024160;28;20021;-93
2024/01/15 08:14:45;;;;;;;0.10;0.10;;;;;;;;;;5023160;28;20032;-93
2024/01/15 08:17:11;;;;;;;0.10;0.10;;;;;;;;;;5028104;28;20631;-92
2024/01/15 08:19:37;;;;;;;0.10;0.10;;;;;;;;;;5023954;28;20072;-92
2024/01/15 08:22:03;;;;;;;0.00;0.00;;;;;;;;;;5023197;28;20034;-92
2024/01/15 08:24:29;;;;;;;0.10;0.10;;;;;;;;;;5027896;28;20032;-92
2024/01/15 08:26:56;;;;;;;0.10;0.10;;;;;;;;;;5033574;28;20026;-92
2024/01/15 08:29:22;;;;;;;0.10;0.10;;;;;;;;;;5022291;28;20033;-92
2024/01/15 08:31:48;;;;;;;0.10;0.10;;;;;;;;;;5019306;28;20139;-93
2024/01/15 08:34:14;;;;;;;0.00;0.00;;;;;;;;;;5023624;28;20086;-92
2024/01/15 08:36:40;;;;;;;0.10;0.10;;;;;;;;;;5021844;28;20104;-93
2024/01/15 08:39:06;;;;;;;0.10;0.10;;;;;;;;;;5025114;28;20026;-92
2024/01/15 08:41:35;;;;;;;0.10;0.10;;;;;;;;;;5023703;28;20036;-92
2024/01/15 08:44:02;;;;;;;0.10;0.10;;;;;;;;;;5018454;28;20036;-93
2024/01/15 08:46:28;;;;;;;0.10;0.10;;;;;;;;;;5026413;28;20036;-93
2024/01/15 08:48:54;;;;;;;0.10;0.10;;;;;;;;;;5025640;28;20038;-93
2024/01/15 08:51:20;;;;;;;0.00;0.00;;;;;;;;;;5032683;28;20029;-92
2024/01/15 08:53:46;;;;;;;0.10;0.10;;;;;;;;;;5033852;28;20052;-93
2024/01/15 08:56:12;;;;;;;0.10;0.10;;;;;;;;;;5032727;28;20021;-93
2024/01/15 08:58:38;;;;;;;0.10;0.10;;;;;;;;;;5038102;28;20020;-93
2024/01/15 09:01:04;;;;;;;0.10;0.10;;;;;;;;;;5034799;28;20029;-94
2024/01/15 09:03:30;;;;;;;0.10;0.10;;;;;;;;;;5036591;28;20528;-93
2024/01/15 09:05:56;;;;;;;0.10;0.10;;;;;;;;;;5033358;28;20052;-93
2024/01/15 09:08:22;;;;;;;0.10;0.10;;;;;;;;;;5033719;28;20049;-93
2024/01/15 09:10:48;;;;;;;0.00;0.00;;;;;;;;;;5032033;28;20067;-93
2024/01/15 09:13:14;;;;;;;0.10;0.10;;;;;;;;;;5037217;28;20052;-93
2024/01/15 09:15:40;;;;;;;0.10;0.10;;;;;;;;;;5043728;28;20024;-93
2024/01/15 09:18:06;;;;;;;0.10;0.10;;;;;;;;;;5032097;28;20021;-93
2024/01/15 09:20:32;;;;;;;0.10;0.10;;;;;;;;;;5030712;28;20116;-93
2024/01/15 09:22:58;;;;;;;0.10;0.10;;;;;;;;;;5030832;28;20025;-92
2024/01/15 09:25:24;;;;;;;0.10;0.10;;;;;;;;;;5027964;28;20079;-93
2024/01/15 09:27:50;;;;;;;0.10;0.10;;;;;;;;;;5032879;28;20028;-93
2024/01/15 09:30:16;;;;;;;0.10;0.10;;;;;;;;;;5035692;28;20036;-93
2024/01/15 09:32:42;;;;;;;0.10;0.10;;;;;;;;;;5029325;28;20021;-93
2024/01/15 09:35:08;;;;;;;0.10;0.10;;;;;;;;;;5030305;28;20403;-93
2024/01/15 09:37:34;;;;;;;0.05;0.05;;;;;;;;;;5028489;28;20021;-92
2024/01/15 09:40:01;;;;;;;0.10;0.10;;;;;;;;;;5029410;28;20029;-92
2024/01/15 09:42:27;;;;;;;0.10;0.10;;;;;;;;;;5035329;28;20021;-93
2024/01/15 09:44:53;;;;;;;0.10;0.10;;;;;;;;;;5033763;28;20040;-92
2024/01/15 09:47:20;;;;;;;0.00;0.00;;;;;;;;;;5029254;28;20578;-92
2024/01/15 09:49:46;;;;;;;0.00;0.00;;;;;;;;;;5030826;28;20021;-92
2024/01/15 09:52:12;;;;;;;0.00;0.00;;;;;;;;;;5032863;28;20025;-93
2024/01/15 09:54:39;;;;;;;0.10;0.10;;;;;;;;;;5026439;28;20022;-93
2024/01/15 09:57:04;;;;;;;0.00;0.00;;;;;;;;;;5028888;28;20037;-92
2024/01/15 09:59:31;;;;;;;0.00;0.00;;;;;;;;;;5026550;28;20033;-92
2024/01/15 10:01:59;;;;;;;0.00;0.00;;;;;;;;;;5034209;28;20033;-93
2024/01/15 10:04:25;;;;;;;0.10;0.10;;;;;;;;;;5027257;28;20041;-93
2024/01/15 10:06:52;;;;;;;0.00;0.00;;;;;;;;;;5030670;28;20546;-92
2024/01/15 10:09:18;;;;;;;0.10;0.10;;;;;;;;;;5028281;28;20029;-93
2024/01/15 10:11:45;;;;;;;0.10;0.10;;;;;;;;;;5031249;28;20025;-93
2024/01/15 10:14:14;;;;;;;0.10;0.10;;;;;;;;;;5040451;28;20018;-94
2024/01/15 10:16:41;;;;;;;0.10;0.10;;;;;;;;;;5032755;28;20022;-92
2024/01/15 10:19:07;;;;;;;0.10;0.10;;;2.80;99.90;;;;;;5048744;28;20041;-93
2024/01/15 10:21:34;;;;;;;0.10;0.10;;;;;;;;;;5039631;28;20009;-92
2024/01/15 10:24:00;;;;;;;0.10;0.10;;;;;;;;;;5030637;28;20093;-93
2024/01/15 10:26:26;;;;;;;0.10;0.10;;;;;;;;;;5033819;28;20025;-94
2024/01/15 10:28:52;;;;;;;0.10;0.10;;;;;;;;;;5034201;28;20018;-94
2024/01/15 10:31:21;;;;;;;0.10;0.10;;;;;;;;;;5034814;28;20032;-94
2024/01/15 10:33:48;;;;;;;0.10;0.10;;;;;;;;;;5033421;28;20017;-93
2024/01/15 10:36:16;;;;;;;0.10;0.10;;;;;;;;;;5029968;28;20082;-93
2024/01/15 10:38:42;;;;;;;0.10;0.10;;;;;;;;;;5050986;28;20029;-95
2024/01/15 10:41:08;;;;;;;0.10;0.10;;;;;;;;;;5033121;28;20037;-93
2024/01/15 10:43:34;;;;;;;0.10;0.10;;;;;;;;;;5041223;28;20022;-93
2024/01/15 10:46:00;;;;;;;0.10;0.10;;;;;;;;;;5025907;28;20036;-92
2024/01/15 10:48:28;;;;;;;0.10;0.10;;;2.90;99.90;;;;;;5033748;28;20057;-93
2024/01/15 10:50:54;;;;;;;0.10;0.10;;;;;;;;;;5026717;28;20034;-93
2024/01/15 10:53:21;;;;;;;0.10;0.10;;;;;;;;;;5027075;28;20468;-93
2024/01/15 10:55:51;;;;;;;0.10;0.10;;;;;;;;;;5023483;28;20021;-92
2024/01/15 10:58:17;;;;;;;;;;;2.90;99.90;;;;;;5026939;28;20406;-95
2024/01/15 11:00:43;;;;;;;0.08;0.08;;;;;;;;;;5033127;28;19916;-93
2024/01/15 11:03:10;;;;;;;0.08;0.08;;;;;;;;;;5033428;28;20037;-94
2024/01/15 11:05:39;;;;;;;0.10;0.10;;;;;;;;;;5034434;28;20025;-92
2024/01/15 11:08:08;;;;;;;0.10;0.10;;;;;;;;;;5022246;28;20021;-92
2024/01/15 11:11:10;;;;;;;0.08;0.08;;;2.90;99.90;;;;;;5045168;28;20025;-93
2024/01/15 11:13:44;;;;;;;0.10;0.10;;;;;;;;;;4940199;29;20131;-93
2024/01/15 11:16:49;;;;;;;0.05;0.05;;;;;;;;;;5038944;28;20026;-93
2024/01/15 11:19:19;;;;;;;0.00;0.00;;;3.00;99.90;;;;;;5025667;28;20523;-93
2024/01/15 11:21:45;;;;;;;0.10;0.10;;;;;;;;;;5027109;28;20048;-92
2024/01/15 11:24:31;;;;;;;0.10;0.10;;;;;;;;;;5028110;28;20034;-92
2024/01/15 11:26:57;;;;;;;0.10;0.10;;;;;;;;;;5024404;28;20038;-93
2024/01/15 11:29:44;;;;;;;0.05;0.05;;;;;;;;;;5020498;28;20625;-92
2024/01/15 11:32:10;;;;;;;0.10;0.10;;;;;;;;;;5027930;28;20028;-93
2024/01/15 11:34:57;;;;;;;0.10;0.10;;;;;;;;;;5029913;28;20032;-93
2024/01/15 11:37:24;;;;;;;0.10;0.10;;;;;;;;;;5033878;28;20037;-93
2024/01/15 11:39:54;;;;;;;0.10;0.10;;;;;;;;;;5022368;28;20095;-93
2024/01/15 11:42:21;;;;;;;0.10;0.10;;;3.20;99.90;;;;;;5026593;28;20030;-93
2024/01/15 11:44:48;;;;;;;0.10;0.10;;;;;;;;;;5024097;28;20038;-92
2024/01/15 11:47:15;;;;;;;0.10;0.10;;;;;;;;;;5024489;28;20036;-92
2024/01/15 11:49:47;;;;;;;0.10;0.10;;;;;;;;;;5024305;28;20049;-92
2024/01/15 11:55:53;;;;;;;;;;;3.40;99.90;;;;;;4964828;28;20067;-92
2024/01/15 11:58:37;;;;;;;0.10;0.10;;;;;;;;;;4945239;28;19905;-93
2024/01/15 12:13:29;;;;;;;0.00;0.00;;;;;;;;;;5047585;28;20032;-92
2024/01/15 12:16:07;;;;;;;0.03;0.03;;;;;;;;;;5021677;28;20029;-92
2024/01/15 12:18:33;;;;;;;0.05;0.05;;;;;;;;;;5019695;28;20025;-92
2024/01/15 12:20:59;;;;;;;0.10;0.10;;;;;;;;;;5018306;28;20037;-92
2024/01/15 12:23:25;;;;;;;0.10;0.10;;;;;;;;;;5020650;28;20061;-92
2024/01/15 12:25:51;;;;;;;0.10;0.10;;;;;;;;;;5012422;28;20030;-92
2024/01/15 12:28:17;;;;;;;0.00;0.00;;;;;;;;;;5014950;28;20061;-94
2024/01/15 12:30:44;;;;;;;0.10;0.10;;;;;;;;;;5019583;28;20037;-92
2024/01/15 12:33:10;;;;;;;0.10;0.10;;;;;;;;;;5019835;28;20033;-92
2024/01/15 12:35:36;;;;;;;0.10;0.10;;;;;;;;;;5016598;28;20120;-92
2024/01/15 12:38:02;;;;;;;0.00;0.00;;;;;;;;;;5012089;28;20148;-93
2024/01/15 12:40:28;;;;;;;0.10;0.10;;;;;;;;;;5015296;28;20034;-93
2024/01/15 12:42:55;;;;;;;0.10;0.10;;;;;;;;;;5011731;28;20489;-93
2024/01/15 12:45:21;;;;;;;0.10;0.10;;;;;;;;;;5014791;28;20037;-93
2024/01/15 12:47:47;;;;;;;0.10;0.10;;;;;;;;;;5014289;28;20536;-93
2024/01/15 12:50:13;;;;;;;0.10;0.10;;;;;;;;;;5008415;28;20084;-92
2024/01/15 12:52:42;;;;;;;0.10;0.10;;;;;;;;;;5011854;28;20032;-93
2024/01/15 12:55:09;;;;;;;0.00;0.00;;;;;;;;;;5001871;28;20036;-93
2024/01/15 21:39:25;;;;;;;0.10;0.10;;;;;;;;;;607149;22;20290;-88
2024/01/15 21:41:51;;;;;;;0.00;0.00;;;;;;;;;;5031466;28;20051;-93
2024/01/15 21:44:17;;;;;;;0.05;0.05;;;;;;;;;;5010291;28;20453;-93
2024/01/15 21:46:43;;;;;;;0.00;0.00;;;;;;;;;;5038207;28;20037;-92
2024/01/15 21:49:09;;;;;;;0.08;0.08;;;;;;;;;;5038847;28;20480;-93
2024/01/15 21:51:35;;;;;;;0.10;0.10;;;;;;;;;;5042224;28;20109;-92
2024/01/15 21:54:01;;;;;;;0.00;0.00;;;;;;;;;;5037237;28;20025;-92
2024/01/15 21:56:28;;;;;;;0.03;0.03;;;;;;;;;;5038330;28;20037;-92
2024/01/15 21:58:53;;;;;;;0.00;0.00;;;;;;;;;;5038448;28;20022;-92
2024/01/15 22:01:19;;;;;;;0.10;0.10;;;;;;;;;;5039689;28;20022;-93
2024/01/15 22:03:46;;;;;;;0.10;0.10;;;;;;;;;;5038923;28;20037;-93
2024/01/15 22:06:13;;;;;;;0.08;0.08;;;;;;;;;;5040065;28;20029;-93
2024/01/15 22:08:39;;;;;;;0.10;0.10;;;;;;;;;;5039854;28;20092;-94
2024/01/15 22:11:05;;;;;;;0.00;0.00;;;;;;;;;;5034420;28;20026;-93
2024/01/15 22:13:34;;;;;;;0.10;0.10;;;;;;;;;;5038324;28;20050;-94
2024/01/15 22:16:00;;;;;;;0.10;0.10;;;;;;;;;;5003144;28;20025;-93
2024/01/15 22:18:26;;;;;;;0.10;0.10;;;;;;;;;;5015438;28;20059;-93
2024/01/15 22:20:52;;;;;;;0.10;0.10;;;;;;;;;;5004133;28;20033;-93
2024/01/15 22:23:18;;;;;;;0.10;0.10;;;;;;;;;;5039208;28;20480;-93
2024/01/15 22:25:44;;;;;;;0.10;0.10;;;;;;;;;;5025404;28;20032;-93
2024/01/15 22:28:10;;;;;;;0.10;0.10;;;;;;;;;;5037972;28;20112;-93
2024/01/15 22:30:37;;;;;;;0.03;0.03;;;;;;;;;;5036318;28;20103;-93
2024/01/15 22:33:03;;;;;;;0.10;0.10;;;;;;;;;;5037686;28;20033;-93
2024/01/15 22:35:29;;;;;;;0.10;0.10;;;;;;;;;;5039552;28;20030;-92
2024/01/15 22:37:55;;;;;;;0.17;0.17;;;;;;;;;;5039329;28;20040;-93
2024/01/15 22:40:21;;;;;;;0.00;0.00;;;;;;;;;;5002510;28;20037;-93
2024/01/15 22:42:47;;;;;;;0.10;0.10;;;;;;;;;;5019511;28;20120;-93
2024/01/15 22:45:13;;;;;;;0.00;0.00;;;;;;;;;;5032467;28;20030;-93
2024/01/15 22:47:39;;;;;;;0.10;0.10;;;;;;;;;;5010585;28;20030;-93
2024/01/15 22:50:05;;;;;;;0.10;0.10;;;;;;;;;;5037475;28;20401;-94
2024/01/15 22:52:31;;;;;;;0.10;0.10;;;;;;;;;;5015117;28;20036;-92
2024/01/15 22:54:57;;;;;;;0.10;0.10;;;;;;;;;;5032413;28;20041;-93
2024/01/15 22:57:23;;;;;;;0.10;0.10;;;;;;;;;;5039516;28;20021;-93
2024/01/15 22:59:49;;;;;;;0.00;0.00;;;;;;;;;;5037741;28;20026;-92
2024/01/15 23:02:17;;;;;;;0.10;0.10;;;;;;;;;;5038384;28;20030;-93
2024/01/15 23:04:43;;;;;;;0.10;0.10;;;;;;;;;;5037670;28;20050;-93
2024/01/15 23:07:09;;;;;;;0.10;0.10;;;;;;;;;;5013672;28;20021;-93
2024/01/15 23:09:35;;;;;;;0.10;0.10;;;;;;;;;;5052339;28;20018;-92
2024/01/15 23:12:01;;;;;;;0.10;0.10;;;;;;;;;;5030395;28;20030;-94
2024/01/15 23:14:27;;;;;;;0.10;0.10;;;;;;;;;;5049721;28;20010;-93
2024/01/15 23:16:53;;;;;;;0.10;0.10;;;;;;;;;;5047335;28;20029;-94
2024/01/15 23:19:19;;;;;;;0.10;0.10;;;;;;;;;;5027845;28;20022;-93
2024/01/15 23:21:45;;;;;;;0.10;0.10;;;;;;;;;;5013818;28;20041;-93
2024/01/15 23:24:11;;;;;;;0.00;0.00;;;;;;;;;;5035599;28;20026;-93
2024/01/15 23:26:37;;;;;;;0.10;0.10;;;;;;;;;;5039121;28;20058;-93
2024/01/15 23:29:04;;;;;;;0.10;0.10;;;;;;;;;;5037711;28;20033;-93
2024/01/15 23:31:30;;;;;;;0.10;0.10;;;;;;;;;;5034940;28;20030;-93
2024/01/15 23:33:56;;;;;;;0.10;0.10;;;;;;;;;;5013548;28;20029;-93
2024/01/15 23:36:22;;;;;;;0.00;0.00;;;;;;;;;;5030605;28;20022;-93
2024/01/15 23:38:49;;;;;;;0.00;0.00;;;;;;;;;;5040420;28;20619;-93
2024/01/15 23:41:19;;;;;;;0.10;0.10;;;;;;;;;;5027221;28;20029;-94
2024/01/15 23:43:45;;;;;;;0.00;0.00;;;;;;;;;;5035541;28;20042;-93
2024/01/15 23:46:11;;;;;;;0.05;0.05;;;;;;;;;;5036838;28;20026;-93
2024/01/15 23:48:37;;;;;;;0.05;0.05;;;;;;;;;;5030974;28;20034;-93
2024/01/15 23:51:03;;;;;;;0.10;0.10;;;;;;;;;;5042323;28;20035;-93
2024/01/15 23:53:29;;;;;;;0.00;0.00;;;;;;;;;;5039111;28;20123;-93
2024/01/15 23:55:55;;;;;;;0.10;0.10;;;;;;;;;;5033904;28;20034;-93
2024/01/15 23:58:21;;;;;;;0.10;0.10;;;;;;;;;;5040528;28;20476;-92
